Time;durP1;ratioP1;P1;durP2;ratioP2;P2;SDS_P1;SDS_P2;PMS_P1;PMS_P2;Temp;Humidity;BMP_temperature;BMP_pressure;BME280_temperature;BME280_humidity;BME280_pressure;Samples;Min_cycle;Max_cycle;Signal;HPM_P1;HPM_P2
2021/08/05 00:01:00;;;;;;;;;;;14.50;99.90;;;;;;5013291;28;19913;-76
2021/08/05 00:03:26;;;;;;;;;;;14.50;99.90;;;;;;5030959;28;19974;-76
2021/08/05 00:05:51;;;;;;;;;;;14.50;99.90;;;;;;5030976;28;19944;-76
2021/08/05 00:08:17;;;;;;;;;;;14.50;99.90;;;;;;5030761;28;19948;-76
2021/08/05 00:10:42;;;;;;;;;;;14.50;99.90;;;;;;5030921;28;20317;-76
2021/08/05 00:13:08;;;;;;;;;;;14.40;99.90;;;;;;5031362;28;19955;-76
2021/08/05 00:15:33;;;;;;;;;;;14.50;99.90;;;;;;5030855;28;19921;-77
2021/08/05 00:17:59;;;;;;;;;;;14.40;99.90;;;;;;5012864;28;20362;-76
2021/08/05 00:20:24;;;;;;;;;;;14.50;99.90;;;;;;5030774;28;20012;-76
2021/08/05 00:22:49;;;;;;;;;;;14.40;99.90;;;;;;5031024;28;19909;-76
2021/08/05 00:25:15;;;;;;;;;;;14.40;99.90;;;;;;5030452;28;20004;-76
2021/08/05 00:27:40;;;;;;;;;;;14.40;99.90;;;;;;5030417;28;19921;-76
2021/08/05 00:30:06;;;;;;;;;;;14.30;99.90;;;;;;5030572;28;19920;-76
2021/08/05 00:32:32;;;;;;;;;;;14.30;99.90;;;;;;5031328;28;19909;-76
2021/08/05 00:34:57;;;;;;;;;;;14.30;99.90;;;;;;5034234;28;20003;-76
2021/08/05 00:37:23;;;;;;;;;;;14.20;99.90;;;;;;5032688;28;19916;-76
2021/08/05 00:39:48;;;;;;;;;;;14.20;99.90;;;;;;5034211;28;19913;-76
2021/08/05 00:42:14;;;;;;;;;;;14.20;99.90;;;;;;5034202;28;20289;-76
2021/08/05 00:44:39;;;;;;;;;;;14.20;99.90;;;;;;5034425;28;19919;-76
2021/08/05 00:47:05;;;;;;;;;;;14.20;99.90;;;;;;5033791;28;20135;-76
2021/08/05 00:49:31;;;;;;;;;;;14.20;99.90;;;;;;5033931;28;20286;-76
2021/08/05 00:51:56;;;;;;;;;;;14.20;99.90;;;;;;5033340;28;19909;-76
2021/08/05 00:54:22;;;;;;;;;;;14.20;99.90;;;;;;5033736;28;20314;-76
2021/08/05 00:56:48;;;;;;;;;;;14.30;99.90;;;;;;5033465;28;20293;-76
2021/08/05 00:59:13;;;;;;;;;;;14.30;99.90;;;;;;5033481;28;20396;-76
2021/08/05 01:01:41;;;;;;;;;;;14.30;99.90;;;;;;5033799;28;19909;-76
2021/08/05 01:04:08;;;;;;;;;;;14.30;99.90;;;;;;5015525;28;20286;-76
2021/08/05 01:06:33;;;;;;;;;;;14.30;99.90;;;;;;5015581;28;19913;-76
2021/08/05 01:09:14;;;;;;;;;;;14.30;99.90;;;;;;5033740;28;19916;-76
2021/08/05 01:11:44;;;;;;;;;;;14.40;99.90;;;;;;5033603;28;19909;-76
2021/08/05 01:14:13;;;;;;;;;;;14.30;99.90;;;;;;5033568;28;20086;-76
2021/08/05 01:16:40;;;;;;;;;;;14.30;99.90;;;;;;5032488;28;19961;-76
2021/08/05 01:19:11;;;;;;;;;;;14.30;99.90;;;;;;5033350;28;19916;-76
2021/08/05 01:22:09;;;;;;;;;;;14.30;99.90;;;;;;5033332;28;19909;-76
2021/08/05 01:24:36;;;;;;;;;;;14.30;99.90;;;;;;4999854;28;20285;-76
2021/08/05 01:27:02;;;;;;;;;;;14.30;99.90;;;;;;5032897;28;19910;-76
2021/08/05 01:29:31;;;;;;;;;;;14.30;99.90;;;;;;5033269;28;19916;-76
2021/08/05 01:31:57;;;;;;;;;;;14.30;99.90;;;;;;5015423;28;20445;-76
2021/08/05 01:34:23;;;;;;;;;;;14.20;99.90;;;;;;5033536;28;20129;-76
2021/08/05 01:36:49;;;;;;;;;;;14.20;99.90;;;;;;5015099;28;20215;-76
2021/08/05 01:39:15;;;;;;;;;;;14.20;99.90;;;;;;5033141;28;19967;-77
2021/08/05 01:41:41;;;;;;;;;;;14.20;99.90;;;;;;5032901;28;20347;-76
2021/08/05 01:44:08;;;;;;;;;;;14.20;99.90;;;;;;5032390;28;19914;-76
2021/08/05 01:46:34;;;;;;;;;;;14.20;99.90;;;;;;5032439;28;19956;-76
2021/08/05 01:49:00;;;;;;;;;;;14.20;99.90;;;;;;5022372;28;20393;-76
2021/08/05 01:51:26;;;;;;;;;;;14.10;99.90;;;;;;5032604;28;19909;-76
2021/08/05 01:53:51;;;;;;;;;;;14.10;99.90;;;;;;5031878;28;20007;-76
2021/08/05 01:56:21;;;;;;;;;;;14.00;99.90;;;;;;5030925;28;20027;-76
2021/08/05 01:58:46;;;;;;;;;;;14.10;99.90;;;;;;5032562;28;19971;-76
2021/08/05 02:01:12;;;;;;;;;;;14.00;99.90;;;;;;5032410;28;20366;-76
2021/08/05 02:03:37;;;;;;;;;;;14.00;99.90;;;;;;5032446;28;19913;-76
2021/08/05 02:06:18;;;;;;;;;;;14.00;99.90;;;;;;5032064;28;19909;-76
2021/08/05 02:08:51;;;;;;;;;;;14.00;99.90;;;;;;5032329;28;19955;-76
2021/08/05 02:11:17;;;;;;;;;;;14.00;99.90;;;;;;5032293;28;19948;-76
2021/08/05 02:13:43;;;;;;;;;;;14.00;99.90;;;;;;5032277;28;20488;-76
2021/08/05 02:16:15;;;;;;;;;;;14.00;99.90;;;;;;5031805;28;19916;-76
2021/08/05 02:18:45;;;;;;;;;;;14.00;99.90;;;;;;5032194;28;19913;-76
2021/08/05 02:21:12;;;;;;;;;;;14.00;99.90;;;;;;5032219;28;20298;-76
2021/08/05 02:23:39;;;;;;;;;;;14.00;99.90;;;;;;5031322;28;19935;-76
2021/08/05 02:26:04;;;;;;;;;;;14.10;99.90;;;;;;5023332;28;19915;-76
2021/08/05 02:28:30;;;;;;;;;;;14.10;99.90;;;;;;5014197;28;20269;-76
2021/08/05 02:30:56;;;;;;;;;;;14.10;99.90;;;;;;5031708;28;19917;-76
2021/08/05 02:33:22;;;;;;;;;;;14.10;99.90;;;;;;5031913;28;19916;-76
2021/08/05 02:35:48;;;;;;;;;;;14.10;99.90;;;;;;5014079;28;20362;-76
2021/08/05 02:38:14;;;;;;;;;;;14.10;99.90;;;;;;5031620;28;20028;-76
2021/08/05 02:40:40;;;;;;;;;;;14.10;99.90;;;;;;5013829;28;19909;-76
2021/08/05 02:43:07;;;;;;;;;;;14.10;99.90;;;;;;5031636;28;19913;-76
2021/08/05 02:45:34;;;;;;;;;;;14.20;99.90;;;;;;5013938;28;20016;-76
2021/08/05 02:48:00;;;;;;;;;;;14.20;99.90;;;;;;5031371;28;19948;-76
2021/08/05 02:50:27;;;;;;;;;;;14.20;99.90;;;;;;5031506;28;20431;-76
2021/08/05 02:52:53;;;;;;;;;;;14.20;99.90;;;;;;5013666;28;19909;-76
2021/08/05 02:55:19;;;;;;;;;;;14.20;99.90;;;;;;5013248;28;19909;-76
2021/08/05 02:57:44;;;;;;;;;;;14.20;99.90;;;;;;5026202;28;19917;-76
2021/08/05 03:00:10;;;;;;;;;;;14.20;99.90;;;;;;5030196;28;19917;-76
2021/08/05 03:02:36;;;;;;;;;;;14.20;99.90;;;;;;5031466;28;19939;-76
2021/08/05 03:05:02;;;;;;;;;;;14.20;99.90;;;;;;5031285;28;20388;-76
2021/08/05 03:07:27;;;;;;;;;;;14.20;99.90;;;;;;5031038;28;19910;-76
2021/08/05 03:09:53;;;;;;;;;;;14.20;99.90;;;;;;5031254;28;19917;-76
2021/08/05 03:12:18;;;;;;;;;;;14.20;99.90;;;;;;5030935;28;20256;-76
2021/08/05 03:14:44;;;;;;;;;;;14.30;99.90;;;;;;5029782;28;20297;-76
2021/08/05 03:17:10;;;;;;;;;;;14.30;99.90;;;;;;5030792;28;19963;-76
2021/08/05 03:19:36;;;;;;;;;;;14.30;99.90;;;;;;5031076;28;20032;-76
2021/08/05 03:22:02;;;;;;;;;;;14.30;99.90;;;;;;5029872;28;20305;-76
2021/08/05 03:24:28;;;;;;;;;;;14.30;99.90;;;;;;5030977;28;20009;-76
2021/08/05 03:26:53;;;;;;;;;;;14.30;99.90;;;;;;5030508;28;20000;-76
2021/08/05 03:29:19;;;;;;;;;;;14.30;99.90;;;;;;5013463;28;19967;-76
2021/08/05 03:31:44;;;;;;;;;;;14.30;99.90;;;;;;5030917;28;19924;-76
2021/08/05 03:34:10;;;;;;;;;;;14.30;99.90;;;;;;5013296;28;20384;-76
2021/08/05 03:36:35;;;;;;;;;;;14.30;99.90;;;;;;5030596;28;19915;-76
2021/08/05 03:39:01;;;;;;;;;;;14.30;99.90;;;;;;5013338;28;19913;-76
2021/08/05 03:41:26;;;;;;;;;;;14.30;99.90;;;;;;5013039;28;19916;-76
2021/08/05 03:43:52;;;;;;;;;;;14.30;99.90;;;;;;5030898;28;19920;-76
2021/08/05 03:46:17;;;;;;;;;;;14.30;99.90;;;;;;5012855;28;20440;-76
2021/08/05 03:48:43;;;;;;;;;;;14.30;99.90;;;;;;5013095;28;20007;-76
2021/08/05 03:51:08;;;;;;;;;;;14.20;99.90;;;;;;5030740;28;20006;-76
2021/08/05 03:53:34;;;;;;;;;;;14.20;99.90;;;;;;5029343;28;19919;-76
2021/08/05 03:55:59;;;;;;;;;;;14.20;99.90;;;;;;5028448;28;19939;-76
2021/08/05 03:58:25;;;;;;;;;;;14.20;99.90;;;;;;5029844;28;19963;-76
2021/08/05 04:00:50;;;;;;;;;;;14.20;99.90;;;;;;5016675;28;19913;-76
2021/08/05 04:03:16;;;;;;;;;;;14.30;99.90;;;;;;5012808;28;19916;-76
2021/08/05 04:05:41;;;;;;;;;;;14.30;99.90;;;;;;5029349;28;19910;-76
2021/08/05 04:08:07;;;;;;;;;;;14.30;99.90;;;;;;5033470;28;19909;-76
2021/08/05 04:10:32;;;;;;;;;;;14.30;99.90;;;;;;5034031;28;19913;-76
2021/08/05 04:12:58;;;;;;;;;;;14.30;99.90;;;;;;5042728;28;19909;-76
2021/08/05 04:15:24;;;;;;;;;;;14.30;99.90;;;;;;5049248;28;19909;-76
2021/08/05 04:17:49;;;;;;;;;;;14.20;99.90;;;;;;5038836;28;20397;-76
2021/08/05 04:20:15;;;;;;;;;;;14.20;99.90;;;;;;5034047;28;20036;-76
2021/08/05 04:22:40;;;;;;;;;;;14.20;99.90;;;;;;5034269;28;19913;-76
2021/08/05 04:25:08;;;;;;;;;;;14.20;99.90;;;;;;5032703;28;20097;-76
2021/08/05 04:27:33;;;;;;;;;;;14.20;99.90;;;;;;5033645;28;19966;-76
2021/08/05 04:29:59;;;;;;;;;;;14.20;99.90;;;;;;5033648;28;19917;-76
2021/08/05 04:32:24;;;;;;;;;;;14.20;99.90;;;;;;5033657;28;20405;-76
2021/08/05 04:34:50;;;;;;;;;;;14.20;99.90;;;;;;5032424;28;20441;-76
2021/08/05 04:37:17;;;;;;;;;;;14.20;99.90;;;;;;5032230;28;19916;-76
2021/08/05 04:39:43;;;;;;;;;;;14.20;99.90;;;;;;5044924;28;20385;-76
2021/08/05 04:42:08;;;;;;;;;;;14.30;99.90;;;;;;5053633;28;19909;-76
2021/08/05 04:44:34;;;;;;;;;;;14.30;99.90;;;;;;5052076;28;19967;-76
2021/08/05 04:46:59;;;;;;;;;;;14.30;99.90;;;;;;5052824;28;19956;-76
2021/08/05 04:49:25;;;;;;;;;;;14.30;99.90;;;;;;5040021;28;19909;-76
2021/08/05 04:51:53;;;;;;;;;;;14.30;99.90;;;;;;5031171;28;20400;-76
2021/08/05 04:54:22;;;;;;;;;;;14.30;99.90;;;;;;5032065;28;19909;-76
2021/08/05 04:56:48;;;;;;;;;;;14.30;99.90;;;;;;5031787;28;19909;-76
2021/08/05 04:59:14;;;;;;;;;;;14.30;99.90;;;;;;5036668;28;19916;-76
2021/08/05 05:01:39;;;;;;;;;;;14.40;99.90;;;;;;5039546;28;19944;-76
2021/08/05 05:04:05;;;;;;;;;;;14.40;99.90;;;;;;5034261;28;19920;-76
2021/08/05 05:06:30;;;;;;;;;;;14.40;99.90;;;;;;5013063;28;19936;-76
2021/08/05 05:08:56;;;;;;;;;;;14.40;99.90;;;;;;5030775;28;19909;-76
2021/08/05 05:11:22;;;;;;;;;;;14.30;99.90;;;;;;5032259;28;19959;-76
2021/08/05 05:13:48;;;;;;;;;;;14.40;99.90;;;;;;5033411;28;20363;-76
2021/08/05 05:16:13;;;;;;;;;;;14.40;99.90;;;;;;5052359;28;19913;-76
2021/08/05 05:18:39;;;;;;;;;;;14.30;99.90;;;;;;5046591;28;20381;-76
2021/08/05 05:21:04;;;;;;;;;;;14.30;99.90;;;;;;5025838;28;19913;-76
2021/08/05 05:23:31;;;;;;;;;;;14.30;99.90;;;;;;5031716;28;19913;-76
2021/08/05 05:25:57;;;;;;;;;;;14.20;99.90;;;;;;5031149;28;19909;-76
2021/08/05 05:28:23;;;;;;;;;;;14.20;99.90;;;;;;5014672;28;19909;-76
2021/08/05 05:30:49;;;;;;;;;;;14.30;99.90;;;;;;5032476;28;19927;-76
2021/08/05 05:33:14;;;;;;;;;;;14.30;99.90;;;;;;5032893;28;19913;-76
2021/08/05 05:35:40;;;;;;;;;;;14.30;99.90;;;;;;5033276;28;19917;-76
2021/08/05 05:38:07;;;;;;;;;;;14.40;99.90;;;;;;5029182;28;19996;-76
2021/08/05 05:40:32;;;;;;;;;;;14.50;99.90;;;;;;5036148;28;20428;-76
2021/08/05 05:43:00;;;;;;;;;;;14.50;99.90;;;;;;5032557;28;19917;-76
2021/08/05 05:45:26;;;;;;;;;;;14.60;99.90;;;;;;5032582;28;19921;-76
2021/08/05 05:47:52;;;;;;;;;;;14.60;99.90;;;;;;5032455;28;19913;-76
2021/08/05 05:50:18;;;;;;;;;;;14.70;99.90;;;;;;5031411;28;19909;-76
2021/08/05 05:52:43;;;;;;;;;;;14.70;99.90;;;;;;5031458;28;19917;-76
2021/08/05 05:55:09;;;;;;;;;;;14.70;99.90;;;;;;5036808;28;20008;-76
2021/08/05 05:57:35;;;;;;;;;;;14.70;99.90;;;;;;5029287;28;19963;-76
2021/08/05 06:00:00;;;;;;;;;;;14.90;99.90;;;;;;5030773;28;19917;-76
2021/08/05 06:02:26;;;;;;;;;;;15.10;99.90;;;;;;5031468;28;19916;-76
2021/08/05 06:04:51;;;;;;;;;;;15.20;99.90;;;;;;5031209;28;20335;-76
2021/08/05 06:07:17;;;;;;;;;;;15.20;99.90;;;;;;5031623;28;19944;-76
2021/08/05 06:09:42;;;;;;;;;;;15.20;99.90;;;;;;5014205;28;20274;-76
2021/08/05 06:12:08;;;;;;;;;;;15.10;99.90;;;;;;5032361;28;20349;-76
2021/08/05 06:14:33;;;;;;;;;;;15.20;99.90;;;;;;5013429;28;19917;-76
2021/08/05 06:16:59;;;;;;;;;;;15.30;99.90;;;;;;5031320;28;19913;-76
2021/08/05 06:19:24;;;;;;;;;;;15.30;99.90;;;;;;5032309;28;19909;-76
2021/08/05 06:21:50;;;;;;;;;;;15.30;99.90;;;;;;5031935;28;19909;-76
2021/08/05 06:24:15;;;;;;;;;;;15.30;99.90;;;;;;5030929;28;20024;-77
2021/08/05 06:26:41;;;;;;;;;;;15.30;99.90;;;;;;5031429;28;19913;-76
2021/08/05 06:29:10;;;;;;;;;;;15.40;99.90;;;;;;5031759;28;19920;-76
2021/08/05 06:31:35;;;;;;;;;;;15.40;99.90;;;;;;5031925;28;19971;-76
2021/08/05 06:34:02;;;;;;;;;;;15.50;99.90;;;;;;5030663;28;19913;-76
2021/08/05 06:36:27;;;;;;;;;;;15.70;99.90;;;;;;5031258;28;19909;-76
2021/08/05 06:38:53;;;;;;;;;;;15.80;99.90;;;;;;5032127;28;19916;-76
2021/08/05 06:41:18;;;;;;;;;;;16.00;99.90;;;;;;5031921;28;19910;-76
2021/08/05 06:43:44;;;;;;;;;;;16.30;99.90;;;;;;5030364;28;20262;-76
2021/08/05 06:46:09;;;;;;;;;;;16.50;99.90;;;;;;5031288;28;20276;-76
2021/08/05 06:48:35;;;;;;;;;;;16.80;99.90;;;;;;5031735;28;20084;-76
2021/08/05 06:51:00;;;;;;;;;;;17.00;99.90;;;;;;5031652;28;19971;-76
2021/08/05 06:53:26;;;;;;;;;;;17.30;99.90;;;;;;5031271;28;20449;-77
2021/08/05 06:55:51;;;;;;;;;;;17.60;99.90;;;;;;5031473;28;19920;-77
2021/08/05 06:58:19;;;;;;;;;;;17.70;99.90;;;;;;5031024;28;19909;-77
2021/08/05 07:00:48;;;;;;;;;;;17.80;99.90;;;;;;5031830;28;20300;-77
2021/08/05 07:03:14;;;;;;;;;;;17.90;99.90;;;;;;5031514;28;20288;-77
2021/08/05 07:05:40;;;;;;;;;;;17.90;99.90;;;;;;5023086;28;19909;-77
2021/08/05 07:08:05;;;;;;;;;;;18.10;99.90;;;;;;5030922;28;19909;-77
2021/08/05 07:10:31;;;;;;;;;;;18.30;99.90;;;;;;5031312;28;19966;-77
2021/08/05 07:12:56;;;;;;;;;;;18.40;99.90;;;;;;5031283;28;19925;-77
2021/08/05 07:15:22;;;;;;;;;;;18.50;99.90;;;;;;5031415;28;20342;-77
2021/08/05 07:17:47;;;;;;;;;;;18.50;99.90;;;;;;5030933;28;19916;-77
2021/08/05 07:20:17;;;;;;;;;;;18.50;99.90;;;;;;5031207;28;19932;-78
2021/08/05 07:22:43;;;;;;;;;;;18.70;99.90;;;;;;5031011;28;19913;-77
2021/08/05 07:25:10;;;;;;;;;;;18.80;99.90;;;;;;5030887;28;20004;-77
2021/08/05 07:27:36;;;;;;;;;;;18.90;99.90;;;;;;5030264;28;20077;-78
2021/08/05 07:30:02;;;;;;;;;;;19.10;99.90;;;;;;5030854;28;19913;-78
2021/08/05 07:32:28;;;;;;;;;;;19.10;99.90;;;;;;5031417;28;19909;-77
2021/08/05 07:34:53;;;;;;;;;;;19.20;99.90;;;;;;5029902;28;19909;-77
2021/08/05 07:37:19;;;;;;;;;;;19.30;99.90;;;;;;5030854;28;19909;-77
2021/08/05 07:39:44;;;;;;;;;;;19.50;99.90;;;;;;5030992;28;20336;-77
2021/08/05 07:42:10;;;;;;;;;;;19.70;99.90;;;;;;5031164;28;19952;-77
2021/08/05 07:44:35;;;;;;;;;;;19.90;99.90;;;;;;5033881;28;19913;-77
2021/08/05 07:47:01;;;;;;;;;;;20.20;99.90;;;;;;5034909;28;19913;-75
2021/08/05 07:49:27;;;;;;;;;;;20.60;99.90;;;;;;5032939;28;19908;-76
2021/08/05 07:51:52;;;;;;;;;;;20.70;99.90;;;;;;5037024;28;19984;-76
2021/08/05 07:54:18;;;;;;;;;;;20.80;99.90;;;;;;5054789;28;20281;-76
2021/08/05 07:56:44;;;;;;;;;;;20.60;99.90;;;;;;5041698;28;19989;-76
2021/08/05 07:59:09;;;;;;;;;;;20.40;99.90;;;;;;5034690;28;19992;-76
2021/08/05 08:01:35;;;;;;;;;;;20.30;99.90;;;;;;5034107;28;19915;-76
2021/08/05 08:04:00;;;;;;;;;;;20.20;99.90;;;;;;5034851;28;19921;-76
2021/08/05 08:06:26;;;;;;;;;;;20.10;99.90;;;;;;5034020;28;19954;-76
2021/08/05 08:08:51;;;;;;;;;;;20.10;99.90;;;;;;5035025;28;19913;-77
2021/08/05 08:11:22;;;;;;;;;;;20.10;99.90;;;;;;5017192;28;19913;-77
2021/08/05 08:13:48;;;;;;;;;;;20.10;99.90;;;;;;5034899;28;20418;-76
2021/08/05 08:16:14;;;;;;;;;;;20.00;99.90;;;;;;5016684;28;20067;-76
2021/08/05 08:18:39;;;;;;;;;;;20.10;99.90;;;;;;5034512;28;19956;-77
2021/08/05 08:21:05;;;;;;;;;;;20.10;99.90;;;;;;5034517;28;19932;-77
2021/08/05 08:23:30;;;;;;;;;;;20.30;99.90;;;;;;5033355;28;20428;-77
2021/08/05 08:25:56;;;;;;;;;;;20.20;99.90;;;;;;5034094;28;19909;-76
2021/08/05 08:28:21;;;;;;;;;;;20.20;99.90;;;;;;5033956;28;19959;-77
2021/08/05 08:30:47;;;;;;;;;;;20.20;99.90;;;;;;5034229;28;19923;-76
2021/08/05 08:33:12;;;;;;;;;;;20.30;99.90;;;;;;5034209;28;19952;-77
2021/08/05 08:35:38;;;;;;;;;;;20.50;99.90;;;;;;5034398;28;19909;-77
2021/08/05 08:38:04;;;;;;;;;;;20.70;99.90;;;;;;5033922;28;20043;-76
2021/08/05 08:40:30;;;;;;;;;;;20.60;99.90;;;;;;5033978;28;19909;-77
2021/08/05 08:42:55;;;;;;;;;;;21.00;99.90;;;;;;5034137;28;20401;-77
2021/08/05 08:45:21;;;;;;;;;;;22.10;99.90;;;;;;5033996;28;19921;-77
2021/08/05 08:47:52;;;;;;;;;;;23.00;99.90;;;;;;5033929;28;20333;-77
2021/08/05 08:50:18;;;;;;;;;;;23.10;99.90;;;;;;5033915;28;19909;-77
2021/08/05 08:52:44;;;;;;;;;;;23.30;99.90;;;;;;5033735;28;20358;-77
2021/08/05 08:55:10;;;;;;;;;;;23.60;99.90;;;;;;5033804;28;19948;-77
2021/08/05 08:57:36;;;;;;;;;;;24.00;99.90;;;;;;5033381;28;19971;-77
2021/08/05 09:00:04;;;;;;;;;;;24.40;99.90;;;;;;5033520;28;19996;-77
2021/08/05 09:02:30;;;;;;;;;;;24.50;99.90;;;;;;5033670;28;20247;-77
2021/08/05 09:04:55;;;;;;;;;;;24.70;99.90;;;;;;5032714;28;20229;-77
2021/08/05 09:07:22;;;;;;;;;;;25.20;99.90;;;;;;5040857;28;20277;-77
2021/08/05 09:09:48;;;;;;;;;;;25.60;99.90;;;;;;5041146;28;19916;-77
2021/08/05 09:12:15;;;;;;;;;;;25.70;99.90;;;;;;5033667;28;19909;-77
2021/08/05 09:14:42;;;;;;;;;;;25.40;99.90;;;;;;5033581;28;19909;-77
2021/08/05 09:17:18;;;;;;;;;;;25.10;99.90;;;;;;5033096;28;19909;-77
2021/08/05 09:19:43;;;;;;;;;;;25.50;99.90;;;;;;5033450;28;20312;-77
2021/08/05 09:22:09;;;;;;;;;;;25.70;99.90;;;;;;5032680;28;19915;-76
2021/08/05 09:24:34;;;;;;;;;;;26.00;99.90;;;;;;5033071;28;20413;-77
2021/08/05 09:27:02;;;;;;;;;;;26.00;99.90;;;;;;5032105;28;19909;-77
2021/08/05 09:29:28;;;;;;;;;;;25.60;99.90;;;;;;5032993;28;20532;-77
2021/08/05 09:31:54;;;;;;;;;;;25.00;99.90;;;;;;5033031;28;20005;-77
2021/08/05 09:34:19;;;;;;;;;;;24.50;99.90;;;;;;5015344;28;19949;-77
2021/08/05 09:36:46;;;;;;;;;;;24.00;99.90;;;;;;5015108;28;20366;-76
2021/08/05 09:39:16;;;;;;;;;;;23.60;99.90;;;;;;5033037;28;19936;-76
2021/08/05 09:41:51;;;;;;;;;;;23.20;99.90;;;;;;5032953;28;19913;-76
2021/08/05 09:44:17;;;;;;;;;;;23.00;99.90;;;;;;5033025;28;20373;-76
2021/08/05 09:46:42;;;;;;;;;;;23.10;99.90;;;;;;5014803;28;19917;-76
2021/08/05 09:49:17;;;;;;;;;;;23.10;99.90;;;;;;5032694;28;19917;-76
2021/08/05 09:51:43;;;;;;;;;;;23.30;99.90;;;;;;5033170;28;19909;-77
2021/08/05 09:54:09;;;;;;;;;;;24.40;99.90;;;;;;5033382;28;20293;-77
2021/08/05 09:56:36;;;;;;;;;;;25.50;99.90;;;;;;5032691;28;19917;-77
2021/08/05 09:59:06;;;;;;;;;;;26.20;99.90;;;;;;5014980;28;20006;-76
2021/08/05 10:01:32;;;;;;;;;;;26.30;99.30;;;;;;5031177;28;20385;-77
2021/08/05 10:03:57;;;;;;;;;;;26.30;99.90;;;;;;5031979;28;19913;-76
2021/08/05 10:06:23;;;;;;;;;;;26.30;99.90;;;;;;5030844;28;19910;-77
2021/08/05 10:08:48;;;;;;;;;;;26.20;99.90;;;;;;5013514;28;19913;-77
2021/08/05 10:11:15;;;;;;;;;;;26.10;99.90;;;;;;5032264;28;20000;-77
2021/08/05 10:13:42;;;;;;;;;;;26.10;98.80;;;;;;5032428;28;19913;-77
2021/08/05 10:16:09;;;;;;;;;;;26.00;99.90;;;;;;5031835;28;20385;-77
2021/08/05 10:18:35;;;;;;;;;;;25.80;99.90;;;;;;5032313;28;19996;-77
2021/08/05 10:21:02;;;;;;;;;;;25.90;99.60;;;;;;5032317;28;20365;-77
2021/08/05 10:23:28;;;;;;;;;;;26.00;99.90;;;;;;5031017;28;19928;-77
2021/08/05 10:25:55;;;;;;;;;;;26.50;98.40;;;;;;5031537;28;20312;-77
2021/08/05 10:28:20;;;;;;;;;;;26.50;99.90;;;;;;5031819;28;19912;-77
2021/08/05 10:30:47;;;;;;;;;;;26.70;99.20;;;;;;5031454;28;19971;-77
2021/08/05 10:33:12;;;;;;;;;;;26.80;99.90;;;;;;5032055;28;19941;-77
2021/08/05 10:35:38;;;;;;;;;;;27.60;98.80;;;;;;5032069;28;19978;-77
2021/08/05 10:38:04;;;;;;;;;;;27.40;96.90;;;;;;5034294;28;19916;-78
2021/08/05 10:40:30;;;;;;;;;;;27.70;96.90;;;;;;5040233;28;19909;-78
2021/08/05 10:42:56;;;;;;;;;;;27.80;96.60;;;;;;5034687;28;19909;-76
2021/08/05 10:45:22;;;;;;;;;;;27.50;93.30;;;;;;5030233;28;19913;-76
2021/08/05 10:47:49;;;;;;;;;;;27.30;94.90;;;;;;5031725;28;19909;-77
2021/08/05 10:50:15;;;;;;;;;;;27.60;96.90;;;;;;5032339;28;19964;-77
2021/08/05 10:52:47;;;;;;;;;;;28.10;92.90;;;;;;5031914;28;20004;-77
2021/08/05 10:55:16;;;;;;;;;;;28.30;98.60;;;;;;5029457;28;19914;-77
2021/08/05 10:57:42;;;;;;;;;;;28.50;95.00;;;;;;5030762;28;20267;-77
2021/08/05 11:00:17;;;;;;;;;;;28.30;95.90;;;;;;5025617;28;19913;-77
2021/08/05 11:02:47;;;;;;;;;;;28.20;95.40;;;;;;5031892;28;20374;-77
2021/08/05 11:05:32;;;;;;;;;;;28.30;97.00;;;;;;5030562;28;19914;-77
2021/08/05 11:08:07;;;;;;;;;;;28.60;93.40;;;;;;5031630;28;19909;-78
2021/08/05 11:10:33;;;;;;;;;;;29.20;92.30;;;;;;5031930;28;19913;-78
2021/08/05 11:13:08;;;;;;;;;;;29.30;92.40;;;;;;5032908;28;19909;-78
2021/08/05 11:15:33;;;;;;;;;;;29.40;93.10;;;;;;5034403;28;19920;-78
2021/08/05 11:18:20;;;;;;;;;;;29.10;92.70;;;;;;5041432;28;19948;-78
2021/08/05 11:20:51;;;;;;;;;;;28.90;93.30;;;;;;5041745;28;19935;-78
2021/08/05 11:23:44;;;;;;;;;;;28.70;94.50;;;;;;5033681;28;19909;-78
2021/08/05 11:26:10;;;;;;;;;;;28.30;94.50;;;;;;5022506;28;19913;-78
2021/08/05 11:28:36;;;;;;;;;;;27.60;92.50;;;;;;5041531;28;20011;-78
2021/08/05 11:31:06;;;;;;;;;;;27.00;94.70;;;;;;5013879;28;19957;-77
2021/08/05 11:33:35;;;;;;;;;;;26.80;94.10;;;;;;5013886;28;19963;-77
2021/08/05 11:36:23;;;;;;;;;;;26.30;95.30;;;;;;5031161;28;19945;-77
2021/08/05 11:38:57;;;;;;;;;;;25.90;95.00;;;;;;5013536;28;19916;-77
2021/08/05 11:41:38;;;;;;;;;;;25.70;95.80;;;;;;5031605;28;20400;-77
2021/08/05 11:44:22;;;;;;;;;;;25.70;95.20;;;;;;5013572;28;19913;-77
2021/08/05 11:47:06;;;;;;;;;;;25.60;95.10;;;;;;5031655;28;19976;-77
2021/08/05 11:49:36;;;;;;;;;;;25.40;94.60;;;;;;5031253;28;19913;-77
2021/08/05 11:52:14;;;;;;;;;;;25.10;95.40;;;;;;5013234;28;19913;-77
2021/08/05 11:54:44;;;;;;;;;;;24.50;95.30;;;;;;5013355;28;20393;-77
2021/08/05 11:57:11;;;;;;;;;;;24.30;96.40;;;;;;5012883;28;20007;-78
2021/08/05 11:59:39;;;;;;;;;;;24.40;97.70;;;;;;5030901;28;20408;-77
2021/08/05 12:02:06;;;;;;;;;;;24.40;96.60;;;;;;5012685;28;19932;-77
2021/08/05 12:04:32;;;;;;;;;;;24.40;98.20;;;;;;5027372;28;19917;-78
2021/08/05 12:07:16;;;;;;;;;;;24.50;96.70;;;;;;5031419;28;19909;-77
2021/08/05 12:09:42;;;;;;;;;;;24.60;98.80;;;;;;5031566;28;19917;-77
2021/08/05 12:12:07;;;;;;;;;;;24.60;96.00;;;;;;5031558;28;19917;-77
2021/08/05 12:14:33;;;;;;;;;;;24.60;95.90;;;;;;5029784;28;19913;-77
2021/08/05 12:16:58;;;;;;;;;;;24.70;97.90;;;;;;5030865;28;19914;-77
2021/08/05 12:19:25;;;;;;;;;;;24.80;97.70;;;;;;5030013;28;20353;-78
2021/08/05 12:21:51;;;;;;;;;;;24.80;97.50;;;;;;5031328;28;19915;-78
2021/08/05 12:24:16;;;;;;;;;;;24.90;97.70;;;;;;5018697;28;19986;-77
2021/08/05 12:26:42;;;;;;;;;;;24.80;96.80;;;;;;5030035;28;19913;-78
2021/08/05 12:29:08;;;;;;;;;;;24.90;97.80;;;;;;5033021;28;20482;-77
2021/08/05 12:31:33;;;;;;;;;;;25.00;97.90;;;;;;5035481;28;20385;-77
2021/08/05 12:33:59;;;;;;;;;;;25.40;96.60;;;;;;5034315;28;19916;-77
2021/08/05 12:36:26;;;;;;;;;;;25.70;95.20;;;;;;5034403;28;19909;-77
2021/08/05 12:38:52;;;;;;;;;;;25.60;95.90;;;;;;5016605;28;20007;-77
2021/08/05 12:41:18;;;;;;;;;;;25.60;97.40;;;;;;5034257;28;19971;-77
2021/08/05 12:43:44;;;;;;;;;;;25.40;96.30;;;;;;5016361;28;20353;-77
2021/08/05 12:46:10;;;;;;;;;;;25.10;95.70;;;;;;5033675;28;20440;-77
2021/08/05 12:48:36;;;;;;;;;;;25.00;97.40;;;;;;5034189;28;19909;-77
2021/08/05 12:51:02;;;;;;;;;;;24.80;96.50;;;;;;5033930;28;19913;-77
2021/08/05 12:53:31;;;;;;;;;;;24.70;97.40;;;;;;5033847;28;19916;-77
2021/08/05 12:55:58;;;;;;;;;;;24.60;97.40;;;;;;5034120;28;19909;-77
2021/08/05 12:58:24;;;;;;;;;;;24.10;99.10;;;;;;5033552;28;20286;-77
2021/08/05 13:00:51;;;;;;;;;;;23.30;99.90;;;;;;5033378;28;19909;-77
2021/08/05 13:03:16;;;;;;;;;;;22.30;99.90;;;;;;5033650;28;19992;-77
2021/08/05 13:05:56;;;;;;;;;;;22.00;99.90;;;;;;5032341;28;20016;-77
2021/08/05 13:08:37;;;;;;;;;;;22.10;99.90;;;;;;5033489;28;19913;-77
2021/08/05 13:11:04;;;;;;;;;;;22.30;99.90;;;;;;5032161;28;20000;-77
2021/08/05 13:13:39;;;;;;;;;;;22.30;99.90;;;;;;5032308;28;19983;-77
2021/08/05 13:16:17;;;;;;;;;;;22.60;99.90;;;;;;5033231;28;19909;-77
2021/08/05 13:18:42;;;;;;;;;;;23.00;99.90;;;;;;5032114;28;20369;-77
2021/08/05 13:21:11;;;;;;;;;;;23.40;99.90;;;;;;5033309;28;19916;-76
2021/08/05 13:23:37;;;;;;;;;;;23.90;99.90;;;;;;5031906;28;20393;-77
2021/08/05 13:26:02;;;;;;;;;;;24.00;99.70;;;;;;5032653;28;19913;-77
2021/08/05 13:28:36;;;;;;;;;;;24.10;98.90;;;;;;5015126;28;19909;-77
2021/08/05 13:31:05;;;;;;;;;;;24.40;98.80;;;;;;5033139;28;19921;-77
2021/08/05 13:33:31;;;;;;;;;;;24.40;99.00;;;;;;5032956;28;19956;-77
2021/08/05 13:35:58;;;;;;;;;;;24.40;98.10;;;;;;5033004;28;19944;-77
2021/08/05 13:38:24;;;;;;;;;;;24.40;97.60;;;;;;5032642;28;19909;-77
2021/08/05 13:40:49;;;;;;;;;;;24.40;99.90;;;;;;5031981;28;20050;-78
2021/08/05 13:43:16;;;;;;;;;;;24.50;98.80;;;;;;5032807;28;19909;-78
2021/08/05 13:45:42;;;;;;;;;;;24.40;99.60;;;;;;5032969;28;19920;-78
2021/08/05 13:48:08;;;;;;;;;;;24.40;99.90;;;;;;5033257;28;19956;-78
2021/08/05 13:50:34;;;;;;;;;;;24.10;98.40;;;;;;5032805;28;19920;-78
2021/08/05 13:53:03;;;;;;;;;;;23.60;99.80;;;;;;5032782;28;19909;-77
2021/08/05 13:55:29;;;;;;;;;;;23.10;99.90;;;;;;5033622;28;19909;-77
2021/08/05 13:57:55;;;;;;;;;;;22.70;99.90;;;;;;5016612;28;19916;-77
2021/08/05 14:00:23;;;;;;;;;;;22.50;99.90;;;;;;5034335;28;19909;-77
2021/08/05 14:02:48;;;;;;;;;;;22.50;99.90;;;;;;5034852;28;19992;-78
2021/08/05 14:05:14;;;;;;;;;;;22.60;99.90;;;;;;5033976;28;20009;-76
2021/08/05 14:07:41;;;;;;;;;;;22.60;99.90;;;;;;5034263;28;19916;-77
2021/08/05 14:10:07;;;;;;;;;;;22.70;99.90;;;;;;5017466;28;19909;-77
2021/08/05 14:12:34;;;;;;;;;;;22.90;99.90;;;;;;5014878;28;19913;-77
2021/08/05 14:15:00;;;;;;;;;;;23.00;99.90;;;;;;5032389;28;20016;-77